Time;durP1;ratioP1;P1;durP2;ratioP2;P2;SDS_P1;SDS_P2;PMS_P1;PMS_P2;Temp;Humidity;BMP_temperature;BMP_pressure;BME280_temperature;BME280_humidity;BME280_pressure;Samples;Min_cycle;Max_cycle;Signal;HPM_P1;HPM_P2
2023/01/01 00:01:27;;;;;;;1.98;1.33;;;;;;;15.46;49.22;100534.53;5132808;28;20800;-82
2023/01/01 00:03:58;;;;;;;2.80;2.13;;;;;;;15.48;49.21;100532.66;5163115;28;20023;-82
2023/01/01 00:06:29;;;;;;;1.77;1.38;;;;;;;15.42;49.53;100526.72;5143404;28;20262;-82
2023/01/01 00:11:49;;;;;;;5.18;0.93;;;;;;;15.45;49.83;100523.09;5174224;28;20040;-82
2023/01/01 00:14:20;;;;;;;5.35;2.25;;;;;;;15.50;49.58;100528.13;5171063;28;20630;-81
2023/01/01 00:16:54;;;;;;;2.03;1.80;;;;;;;15.47;49.03;100518.56;5154087;28;20047;-82
2023/01/01 00:19:24;;;;;;;1.33;1.25;;;;;;;15.50;49.77;100525.47;5129202;28;20055;-82
2023/01/01 00:21:55;;;;;;;1.30;1.23;;;;;;;15.48;49.77;100530.00;5136972;28;20043;-83
2023/01/01 00:24:25;;;;;;;0.30;0.30;;;;;;;15.39;49.01;100524.25;5155240;28;20033;-83
2023/01/01 00:26:56;;;;;;;1.02;1.00;;;;;;;15.39;49.29;100521.63;5118595;28;20043;-83
2023/01/01 00:29:27;;;;;;;1.63;1.52;;;;;;;15.41;49.38;100522.38;5141039;28;20160;-82
2023/01/01 00:31:57;;;;;;;1.33;1.23;;;;;;;15.37;48.46;100541.97;5135611;28;20039;-82
2023/01/01 00:34:28;;;;;;;3.45;1.25;;;;;;;15.36;49.41;100513.81;5134142;28;20027;-83
2023/01/01 00:36:59;;;;;;;0.70;0.70;;;;;;;15.29;48.45;100528.28;5147745;28;20050;-81
2023/01/01 00:39:32;;;;;;;2.00;1.52;;;;;;;15.30;48.57;100535.28;5120481;28;20027;-82
2023/01/01 00:42:03;;;;;;;1.35;1.23;;;;;;;15.27;47.83;100535.44;5134936;28;20050;-82
2023/01/01 00:44:34;;;;;;;0.30;0.30;;;;;;;15.23;47.65;100526.81;5141870;28;20030;-83
2023/01/01 00:47:04;;;;;;;0.52;0.52;;;;;;;15.26;47.82;100536.34;5141163;28;20051;-82
2023/01/01 00:49:35;;;;;;;2.38;0.93;;;;;;;15.23;47.86;100544.47;5151623;28;20692;-82
2023/01/01 00:52:05;;;;;;;1.30;1.00;;;;;;;15.17;47.27;100534.16;5131791;28;20454;-82
2023/01/01 00:54:36;;;;;;;0.80;0.80;;;;;;;15.15;47.77;100534.25;5125217;28;20034;-81
2023/01/01 00:57:06;;;;;;;0.60;0.60;;;;;;;15.15;47.41;100538.69;5137533;28;20070;-82
2023/01/01 00:59:40;;;;;;;3.42;1.67;;;;;;;15.11;46.73;100540.63;5136135;28;20592;-82
2023/01/01 01:02:10;;;;;;;0.30;0.30;;;;;;;15.08;46.95;100525.75;5119613;28;20043;-83
2023/01/01 01:04:41;;;;;;;0.95;0.95;;;;;;;15.09;46.58;100538.03;5142342;28;20529;-82
2023/01/01 01:07:12;;;;;;;0.38;0.38;;;;;;;15.01;46.90;100524.34;5128501;28;20051;-82
2023/01/01 01:09:42;;;;;;;0.60;0.60;;;;;;;15.05;46.76;100531.22;5132752;28;20078;-82
2023/01/01 01:12:13;;;;;;;0.25;0.25;;;;;;;15.08;47.38;100541.63;5144880;28;20679;-83
2023/01/01 01:14:43;;;;;;;0.50;0.50;;;;;;;15.04;47.18;100524.22;5129790;28;20674;-81
2023/01/01 01:17:14;;;;;;;0.35;0.35;;;;;;;15.05;46.98;100541.78;5134858;28;20039;-81
2023/01/01 01:19:44;;;;;;;3.72;1.15;;;;;;;15.01;47.07;100544.66;5114246;28;20582;-84
2023/01/01 01:22:15;;;;;;;0.20;0.20;;;;;;;14.99;46.57;100538.56;5146989;28;20066;-81
2023/01/01 01:24:45;;;;;;;0.25;0.25;;;;;;;15.00;46.52;100554.34;5142022;28;20034;-82
2023/01/01 01:27:16;;;;;;;0.20;0.20;;;;;;;14.99;46.07;100557.06;5142447;28;20043;-81
2023/01/01 01:29:46;;;;;;;1.35;0.68;;;;;;;14.96;46.36;100550.16;5136636;28;20142;-81
2023/01/01 01:32:17;;;;;;;0.40;0.40;;;;;;;14.92;46.49;100557.38;5134709;28;20155;-83
2023/01/01 01:34:48;;;;;;;0.52;0.52;;;;;;;14.95;46.20;100566.94;5119744;28;20513;-81
2023/01/01 01:37:19;;;;;;;19.08;1.23;;;;;;;14.92;46.17;100564.41;5133547;28;20138;-82
2023/01/01 01:39:49;;;;;;;0.47;0.47;;;;;;;14.86;46.36;100562.97;5132270;28;20034;-83
2023/01/01 01:42:20;;;;;;;0.85;0.85;;;;;;;14.90;46.26;100576.88;5129458;28;20054;-81
2023/01/01 01:44:57;;;;;;;0.30;0.30;;;;;;;14.87;47.55;100575.25;5134924;28;20126;-81
2023/01/01 01:47:46;;;;;;;0.50;0.45;;;;;;;14.88;47.83;100584.84;5117433;28;20055;-82
2023/01/01 01:50:30;;;;;;;0.77;0.77;;;;;;;14.85;46.41;100574.44;5123413;28;20035;-81
2023/01/01 01:53:08;;;;;;;0.20;0.20;;;;;;;14.84;47.33;100577.13;5129715;28;20106;-81
2023/01/01 01:55:43;;;;;;;0.90;0.90;;;;;;;14.83;47.01;100578.94;5125816;28;20070;-83
2023/01/01 01:58:15;;;;;;;0.30;0.30;;;;;;;14.82;46.79;100576.38;5139954;28;20070;-81
2023/01/01 02:00:46;;;;;;;0.50;0.50;;;;;;;14.78;47.20;100588.88;5116010;28;20061;-84
2023/01/01 02:03:21;;;;;;;0.20;0.20;;;;;;;14.84;47.06;100575.38;5130092;28;20073;-82
2023/01/01 02:05:52;;;;;;;0.30;0.30;;;;;;;14.83;46.89;100586.84;5120584;28;20536;-82
2023/01/01 02:08:24;;;;;;;0.40;0.40;;;;;;;14.81;46.77;100586.06;5132560;28;20054;-82
2023/01/01 02:10:55;;;;;;;1.13;0.82;;;;;;;14.81;46.82;100585.22;5135469;28;20042;-81
2023/01/01 02:13:26;;;;;;;0.65;0.65;;;;;;;14.80;46.79;100563.22;5121727;28;20039;-81
2023/01/01 02:16:17;;;;;;;0.60;0.60;;;;;;;14.76;46.66;100588.91;5151025;28;20055;-82
2023/01/01 02:19:09;;;;;;;1.13;1.13;;;;;;;14.76;46.99;100580.16;5151304;28;20030;-81
2023/01/01 02:22:08;;;;;;;0.20;0.20;;;;;;;14.75;46.93;100576.66;5125514;28;20050;-83
2023/01/01 02:24:48;;;;;;;0.30;0.30;;;;;;;14.75;46.80;100581.09;5140427;28;20042;-84
2023/01/01 02:27:51;;;;;;;0.30;0.30;;;;;;;14.77;46.92;100585.34;5134710;28;20042;-82
2023/01/01 02:30:21;;;;;;;0.45;0.45;;;;;;;14.75;47.11;100576.66;5112777;28;20046;-83
2023/01/01 02:33:00;;;;;;;3.05;1.48;;;;;;;14.74;47.85;100585.53;5141672;28;20043;-84
2023/01/01 02:35:37;;;;;;;0.20;0.20;;;;;;;14.75;47.09;100576.66;5157604;28;20035;-83
2023/01/01 02:38:20;;;;;;;2.85;1.40;;;;;;;14.78;47.66;100581.78;5163647;28;20043;-83
2023/01/01 02:40:57;;;;;;;0.22;0.22;;;;;;;14.74;48.03;100582.00;5155117;28;20078;-82
2023/01/01 02:43:27;;;;;;;0.20;0.20;;;;;;;14.81;48.18;100578.16;5171628;28;20097;-84
2023/01/01 02:45:58;;;;;;;0.95;0.85;;;;;;;14.73;47.53;100577.66;5163429;28;20062;-81
2023/01/01 02:48:42;;;;;;;0.30;0.30;;;;;;;14.70;48.10;100568.09;5140691;28;20137;-82
2023/01/01 02:51:21;;;;;;;0.65;0.65;;;;;;;14.67;48.20;100576.16;5139918;28;20046;-81
2023/01/01 02:54:04;;;;;;;0.30;0.30;;;;;;;14.64;48.28;100585.03;5142645;28;20081;-81
2023/01/01 02:56:45;;;;;;;0.35;0.35;;;;;;;14.65;47.92;100580.63;5143640;28;20034;-81
2023/01/01 03:02:55;;;;;;;0.65;0.65;;;;;;;14.69;48.04;100578.72;5136885;28;20043;-82
2023/01/01 03:08:47;;;;;;;0.20;0.20;;;;;;;14.62;48.66;100567.56;5131295;28;20046;-80
2023/01/01 03:11:21;;;;;;;0.47;0.47;;;;;;;14.64;48.84;100573.63;5173394;28;20045;-85
2023/01/01 03:14:22;;;;;;;0.63;0.63;;;;;;;14.59;48.98;100576.47;5146777;28;20038;-84
2023/01/01 03:17:11;;;;;;;3.00;1.60;;;;;;;14.62;49.08;100583.41;5156398;28;20048;-82
2023/01/01 03:19:44;;;;;;;0.20;0.20;;;;;;;14.64;49.42;100615.88;5120060;28;20445;-83
2023/01/01 03:22:16;;;;;;;0.30;0.30;;;;;;;14.62;49.27;100607.16;5124864;28;20049;-83
2023/01/01 03:24:55;;;;;;;0.43;0.43;;;;;;;14.56;49.55;100603.03;5125086;28;20512;-81
2023/01/01 03:27:40;;;;;;;0.40;0.40;;;;;;;14.59;49.45;100612.56;5135635;28;20909;-82
2023/01/01 03:30:13;;;;;;;0.77;0.77;;;;;;;14.58;49.64;100613.53;5136565;28;20046;-82
2023/01/01 03:33:06;;;;;;;0.30;0.30;;;;;;;14.59;49.54;100597.59;5155557;28;20209;-83
2023/01/01 03:35:40;;;;;;;0.20;0.20;;;;;;;14.62;49.37;100591.31;5134791;28;20034;-82
2023/01/01 03:38:17;;;;;;;0.30;0.30;;;;;;;14.57;49.89;100603.88;5136808;28;20032;-82
2023/01/01 03:40:52;;;;;;;0.28;0.28;;;;;;;14.61;50.05;100610.72;5136626;28;20046;-83
2023/01/01 03:43:43;;;;;;;0.50;0.50;;;;;;;14.57;50.59;100612.66;5138953;28;20022;-82
2023/01/01 03:46:18;;;;;;;1.40;0.80;;;;;;;14.54;50.83;100617.22;5147775;28;20070;-81
2023/01/01 03:48:55;;;;;;;0.20;0.20;;;;;;;14.55;50.53;100616.28;5131224;28;20050;-81
2023/01/01 03:51:48;;;;;;;0.55;0.55;;;;;;;14.56;50.76;100612.72;5154686;28;20089;-81
2023/01/01 03:54:43;;;;;;;0.40;0.40;;;;;;;14.56;51.53;100623.28;5151142;28;20027;-81
2023/01/01 03:57:33;;;;;;;0.20;0.20;;;;;;;14.55;51.03;100632.97;5118927;28;20398;-83
2023/01/01 04:00:15;;;;;;;1.17;0.90;;;;;;;14.56;51.47;100647.91;5131484;28;20113;-80
2023/01/01 04:03:04;;;;;;;0.40;0.40;;;;;;;14.53;51.02;100633.97;5134969;28;20057;-82
2023/01/01 04:05:39;;;;;;;0.20;0.20;;;;;;;14.56;51.60;100642.63;5135071;28;20754;-82
2023/01/01 04:08:11;;;;;;;0.20;0.20;;;;;;;14.55;51.36;100637.41;5129555;28;20065;-83
2023/01/01 04:10:47;;;;;;;3.03;0.57;;;;;;;14.56;51.61;100631.22;5124919;28;20031;-81
2023/01/01 04:13:17;;;;;;;3.85;1.00;;;;;;;14.51;51.94;100639.34;5137128;28;20346;-83
2023/01/01 04:15:48;;;;;;;2.92;0.55;;;;;;;14.56;51.86;100641.78;5151450;28;20074;-82
2023/01/01 04:18:19;;;;;;;4.10;1.52;;;;;;;14.51;52.06;100638.47;5129414;28;20042;-83
2023/01/01 04:20:49;;;;;;;0.30;0.30;;;;;;;14.52;52.12;100632.25;5138524;28;20050;-83
2023/01/01 04:23:20;;;;;;;2.90;1.30;;;;;;;14.57;52.26;100625.00;5123840;28;20041;-82
2023/01/01 04:25:50;;;;;;;0.50;0.50;;;;;;;14.51;52.29;100618.22;5131254;28;20766;-82
2023/01/01 04:28:21;;;;;;;0.40;0.40;;;;;;;14.53;52.91;100634.84;5124128;28;20086;-81
2023/01/01 04:30:51;;;;;;;0.63;0.63;;;;;;;14.54;53.00;100626.00;5123049;28;20039;-82
2023/01/01 04:33:22;;;;;;;0.40;0.40;;;;;;;14.55;52.89;100632.13;5129414;28;20181;-81
2023/01/01 04:35:52;;;;;;;0.30;0.30;;;;;;;14.48;52.79;100619.22;5134997;28;20057;-82
2023/01/01 04:38:23;;;;;;;0.40;0.40;;;;;;;14.53;52.60;100649.81;5137834;28;20039;-82
2023/01/01 04:40:57;;;;;;;2.90;0.88;;;;;;;14.48;52.98;100647.38;5123819;28;20584;-81
2023/01/01 04:43:29;;;;;;;0.28;0.28;;;;;;;14.53;53.12;100649.81;5131627;28;20118;-81
2023/01/01 04:46:02;;;;;;;0.20;0.20;;;;;;;14.56;53.07;100642.63;5125633;28;21005;-82
2023/01/01 04:48:34;;;;;;;0.20;0.20;;;;;;;14.52;53.45;100638.41;5130068;28;20041;-82
2023/01/01 04:51:05;;;;;;;0.70;0.70;;;;;;;14.51;53.16;100646.38;5114459;28;20069;-83
2023/01/01 04:53:35;;;;;;;0.45;0.45;;;;;;;14.52;52.90;100653.38;5117399;28;20031;-81
2023/01/01 04:56:16;;;;;;;0.75;0.75;;;;;;;14.47;53.42;100651.81;5132485;28;20119;-81
2023/01/01 04:58:46;;;;;;;0.40;0.40;;;;;;;14.48;53.34;100658.81;5130694;28;20085;-82
2023/01/01 05:01:23;;;;;;;0.70;0.70;;;;;;;14.44;53.26;100666.94;5128763;28;20058;-82
2023/01/01 05:03:54;;;;;;;0.73;0.73;;;;;;;14.40;53.32;100660.06;5143372;28;20146;-81
2023/01/01 05:06:25;;;;;;;1.48;1.15;;;;;;;14.46;53.27;100657.19;5130549;28;20048;-81
2023/01/01 05:08:56;;;;;;;0.30;0.30;;;;;;;14.44;53.37;100667.78;5123306;28;20093;-82
2023/01/01 05:11:28;;;;;;;0.73;0.73;;;;;;;14.42;53.35;100667.00;5114506;28;20050;-81
2023/01/01 05:13:59;;;;;;;1.13;0.95;;;;;;;14.37;53.51;100666.34;5132933;28;20177;-82
2023/01/01 05:16:32;;;;;;;0.20;0.20;;;;;;;14.31;53.47;100677.19;5142210;28;20038;-81
2023/01/01 05:19:04;;;;;;;1.05;1.00;;;;;;;14.28;53.89;100672.03;5113126;28;20073;-81
2023/01/01 05:21:37;;;;;;;0.52;0.52;;;;;;;14.25;53.77;100659.81;5116136;28;20058;-80
2023/01/01 05:24:09;;;;;;;0.20;0.20;;;;;;;14.29;53.82;100671.09;5154291;28;20063;-81
2023/01/01 05:26:41;;;;;;;0.82;0.82;;;;;;;14.29;53.64;100679.91;5108324;28;20051;-82
2023/01/01 05:29:12;;;;;;;0.60;0.60;;;;;;;14.27;53.98;100676.47;5129281;28;20035;-82
2023/01/01 05:31:44;;;;;;;0.20;0.20;;;;;;;14.31;53.99;100671.91;5112459;28;20330;-81
2023/01/01 05:34:14;;;;;;;6.00;0.43;;;;;;;14.25;54.26;100685.38;5131411;28;20114;-82
2023/01/01 05:36:45;;;;;;;1.40;1.23;;;;;;;14.28;54.20;100690.50;5114704;28;20754;-82
2023/01/01 05:39:15;;;;;;;0.60;0.60;;;;;;;14.30;54.24;100696.56;5125571;28;20047;-81
2023/01/01 05:41:46;;;;;;;0.40;0.40;;;;;;;14.40;54.46;100700.53;5109362;28;20040;-80
2023/01/01 05:44:18;;;;;;;0.32;0.32;;;;;;;14.31;54.49;100698.28;5127459;28;20546;-81
2023/01/01 05:46:48;;;;;;;0.40;0.40;;;;;;;14.30;54.93;100693.94;5112652;28;20066;-81
2023/01/01 05:49:19;;;;;;;0.65;0.65;;;;;;;14.30;54.69;100707.13;5125004;28;20057;-82
2023/01/01 05:51:49;;;;;;;0.20;0.20;;;;;;;14.33;54.60;100707.00;5126627;28;20043;-83
2023/01/01 05:54:20;;;;;;;0.45;0.45;;;;;;;14.29;54.86;100719.47;5156884;28;20411;-82
2023/01/01 05:56:50;;;;;;;0.52;0.52;;;;;;;14.33;54.94;100730.75;5119903;28;20047;-82
2023/01/01 05:59:21;;;;;;;1.95;1.27;;;;;;;14.33;55.30;100728.13;5141734;28;20066;-82
2023/01/01 06:01:52;;;;;;;0.35;0.32;;;;;;;14.26;56.21;100713.44;5119425;28;20038;-82
2023/01/01 06:04:22;;;;;;;0.35;0.35;;;;;;;14.27;56.41;100712.53;5124367;28;20027;-82
2023/01/01 06:06:53;;;;;;;0.30;0.30;;;;;;;14.24;56.79;100712.69;5119515;28;20069;-82
2023/01/01 06:09:23;;;;;;;0.43;0.43;;;;;;;14.21;56.87;100713.66;5142887;28;20046;-81
2023/01/01 06:11:54;;;;;;;0.40;0.40;;;;;;;14.24;56.61;100712.69;5129296;28;20405;-83
2023/01/01 06:14:24;;;;;;;0.40;0.40;;;;;;;14.31;56.52;100714.13;5135171;28;20125;-83
2023/01/01 06:16:55;;;;;;;0.30;0.30;;;;;;;14.21;56.63;100712.78;5129410;28;20054;-82
2023/01/01 06:19:25;;;;;;;0.73;0.73;;;;;;;14.25;56.04;100712.59;5132726;28;20039;-82
2023/01/01 06:21:56;;;;;;;0.38;0.38;;;;;;;14.25;56.81;100717.03;5134655;28;20050;-82
2023/01/01 06:24:26;;;;;;;0.35;0.35;;;;;;;14.23;56.58;100725.00;5124326;28;20036;-83
2023/01/01 06:26:56;;;;;;;1.25;0.32;;;;;;;14.28;56.89;100732.72;5118955;28;20044;-82
2023/01/01 06:29:27;;;;;;;2.47;1.00;;;;;;;14.29;56.77;100735.31;5126398;28;20446;-83
2023/01/01 06:31:57;;;;;;;0.28;0.28;;;;;;;14.23;56.81;100742.63;5132933;28;20138;-81
2023/01/01 06:34:28;;;;;;;0.75;0.75;;;;;;;14.21;56.91;100750.63;5131737;28;20030;-82
2023/01/01 06:36:58;;;;;;;35.95;1.70;;;;;;;14.22;56.73;100756.72;5135684;28;20049;-84
2023/01/01 06:39:29;;;;;;;0.60;0.60;;;;;;;14.25;56.94;100757.47;5128667;28;20122;-82
2023/01/01 06:41:59;;;;;;;0.80;0.45;;;;;;;14.27;56.61;100758.28;5139415;28;20043;-82
2023/01/01 06:44:30;;;;;;;2.72;1.48;;;;;;;14.25;56.73;100764.53;5136026;28;20056;-82
2023/01/01 06:47:00;;;;;;;0.25;0.25;;;;;;;14.24;56.99;100776.00;5130435;28;21091;-82
2023/01/01 06:49:31;;;;;;;1.25;1.17;;;;;;;14.22;57.19;100783.97;5137154;28;20584;-82
2023/01/01 06:52:01;;;;;;;1.38;1.17;;;;;;;14.27;56.97;100782.03;5134412;28;20051;-83
2023/01/01 06:54:32;;;;;;;0.30;0.30;;;;;;;14.23;57.23;100784.84;5145732;28;20042;-82
2023/01/01 06:57:03;;;;;;;0.40;0.40;;;;;;;14.24;57.31;100787.41;5140298;28;20050;-83
2023/01/01 06:59:33;;;;;;;0.22;0.22;;;;;;;14.23;57.36;100785.69;5118891;28;20056;-83
2023/01/01 07:02:03;;;;;;;1.20;1.10;;;;;;;14.30;57.45;100794.22;5130004;28;20067;-82
2023/01/01 07:04:34;;;;;;;15.93;1.75;;;;;;;14.30;57.11;100802.13;5138959;28;20143;-83
2023/01/01 07:07:04;;;;;;;0.38;0.38;;;;;;;14.20;57.53;100800.78;5119739;28;20054;-82
2023/01/01 07:09:35;;;;;;;0.30;0.30;;;;;;;14.20;57.88;100806.06;5136030;28;20299;-83
2023/01/01 07:12:06;;;;;;;1.67;1.20;;;;;;;14.19;57.83;100815.78;5122821;28;20058;-84
2023/01/01 07:14:36;;;;;;;0.30;0.30;;;;;;;14.16;58.28;100824.69;5136665;28;20056;-82
2023/01/01 07:17:07;;;;;;;0.30;0.30;;;;;;;14.16;58.55;100829.97;5118327;28;20042;-82
2023/01/01 07:19:37;;;;;;;7.53;0.88;;;;;;;14.14;58.78;100828.28;5140407;28;20038;-82
2023/01/01 07:22:09;;;;;;;1.88;1.00;;;;;;;14.22;58.94;100838.53;5125528;28;20071;-83
2023/01/01 07:24:40;;;;;;;0.95;0.95;;;;;;;14.21;59.15;100860.56;5131131;28;20027;-82
2023/01/01 07:27:10;;;;;;;0.20;0.20;;;;;;;14.21;59.42;100855.28;5123370;28;20053;-83
2023/01/01 07:29:40;;;;;;;0.30;0.30;;;;;;;14.13;59.74;100864.38;5109796;28;20050;-84
2023/01/01 07:32:14;;;;;;;0.55;0.55;;;;;;;14.11;60.06;100876.75;5124665;28;20042;-82
2023/01/01 07:34:45;;;;;;;0.20;0.20;;;;;;;14.04;60.79;100870.00;5134263;28;20039;-82
2023/01/01 07:37:15;;;;;;;1.45;0.75;;;;;;;14.02;61.55;100871.84;5144258;28;20050;-83
2023/01/01 07:39:46;;;;;;;5.43;1.70;;;;;;;14.01;61.55;100886.81;5116061;28;20063;-84
2023/01/01 07:42:17;;;;;;;2.03;0.68;;;;;;;14.00;61.64;100871.06;5139522;28;20034;-85
2023/01/01 07:44:47;;;;;;;0.25;0.25;;;;;;;13.96;61.98;100872.09;5122835;28;20038;-86
2023/01/01 07:47:23;;;;;;;0.22;0.22;;;;;;;13.99;62.44;100871.97;5132936;28;20034;-84
2023/01/01 07:49:54;;;;;;;0.20;0.20;;;;;;;13.91;62.43;100874.06;5135543;28;20031;-83
2023/01/01 07:52:24;;;;;;;0.40;0.40;;;;;;;13.94;62.17;100881.84;5118241;28;20089;-85
2023/01/01 07:54:55;;;;;;;0.80;0.80;;;;;;;13.88;61.97;100868.91;5137955;28;20031;-84
2023/01/01 07:57:25;;;;;;;0.60;0.60;;;;;;;13.95;62.25;100871.25;5119825;28;20055;-85
2023/01/01 07:59:56;;;;;;;0.20;0.20;;;;;;;13.87;62.45;100877.72;5125815;28;20034;-85
2023/01/01 08:02:26;;;;;;;1.17;1.13;;;;;;;13.89;62.02;100889.06;5140002;28;20149;-86
2023/01/01 08:04:57;;;;;;;2.17;0.55;;;;;;;13.87;62.53;100869.81;5134749;28;20027;-84
2023/01/01 08:07:27;;;;;;;0.30;0.30;;;;;;;13.88;62.64;100868.91;5146022;28;20217;-85
2023/01/01 08:09:58;;;;;;;0.40;0.25;;;;;;;13.87;62.61;100880.34;5144121;28;20038;-84
2023/01/01 08:12:28;;;;;;;0.50;0.50;;;;;;;13.82;62.83;100891.97;5147483;28;20049;-86
2023/01/01 08:15:02;;;;;;;0.75;0.75;;;;;;;13.89;62.64;100897.00;5148597;28;20031;-87
2023/01/01 08:17:32;;;;;;;0.45;0.45;;;;;;;13.87;62.65;100902.34;5129323;28;20125;-86
2023/01/01 08:20:04;;;;;;;1.05;0.95;;;;;;;13.78;62.97;100895.59;5148622;28;20068;-82
2023/01/01 08:22:35;;;;;;;0.40;0.40;;;;;;;13.75;63.25;100890.47;5140154;28;20045;-85
2023/01/01 08:25:06;;;;;;;0.20;0.20;;;;;;;13.78;62.92;100890.34;5135130;28;20031;-86
2023/01/01 08:27:37;;;;;;;0.40;0.40;;;;;;;13.75;63.10;100890.47;5124036;28;20186;-86
2023/01/01 08:30:10;;;;;;;0.20;0.20;;;;;;;13.81;62.90;100890.22;5130310;28;20445;-90
2023/01/01 08:32:44;;;;;;;0.70;0.60;;;;;;;13.79;63.27;100899.13;5135166;28;20105;-84
2023/01/01 08:35:15;;;;;;;0.40;0.40;;;;;;;13.80;62.97;100906.97;5130966;28;20023;-84
2023/01/01 08:37:45;;;;;;;0.47;0.47;;;;;;;13.80;63.32;100904.34;5130174;28;20038;-83
2023/01/01 08:40:16;;;;;;;0.52;0.52;;;;;;;13.91;62.83;100910.97;5133619;28;20050;-83
2023/01/01 08:42:46;;;;;;;1.00;0.93;;;;;;;13.91;62.78;100927.66;5128793;28;20043;-85
2023/01/01 08:45:17;;;;;;;1.17;1.05;;;;;;;13.88;62.99;100942.75;5122814;28;20031;-87
2023/01/01 08:47:47;;;;;;;1.15;1.05;;;;;;;13.87;63.09;100925.19;5123134;28;20051;-88
2023/01/01 08:50:18;;;;;;;0.60;0.60;;;;;;;13.84;63.01;100937.56;5148002;28;20043;-87
2023/01/01 08:52:48;;;;;;;0.65;0.65;;;;;;;13.84;63.52;100944.63;5132238;28;20498;-89
2023/01/01 08:55:19;;;;;;;2.45;1.95;;;;;;;13.88;63.27;100938.34;5118928;28;20034;-84
2023/01/01 08:57:50;;;;;;;0.20;0.20;;;;;;;13.87;63.36;100957.72;5112597;28;20577;-85
2023/01/01 09:00:20;;;;;;;0.50;0.50;;;;;;;13.85;63.45;100965.66;5137161;28;20121;-84
2023/01/01 09:02:51;;;;;;;0.20;0.20;;;;;;;13.91;63.28;100969.00;5118022;28;20607;-87
2023/01/01 09:05:21;;;;;;;4.00;1.13;;;;;;;13.89;63.38;100971.69;5124595;28;20770;-85
2023/01/01 09:07:52;;;;;;;0.43;0.43;;;;;;;13.84;63.51;100969.22;5118218;28;20039;-84
2023/01/01 09:10:23;;;;;;;0.60;0.60;;;;;;;13.88;63.57;100979.66;5129699;28;20027;-86
2023/01/01 09:12:53;;;;;;;0.30;0.30;;;;;;;13.87;63.77;100977.94;5136723;28;20038;-86
2023/01/01 09:15:24;;;;;;;0.55;0.43;;;;;;;13.89;63.66;100994.56;5115464;28;20234;-84
2023/01/01 09:17:54;;;;;;;2.10;1.05;;;;;;;13.85;63.93;100999.97;5125122;28;20027;-85
2023/01/01 09:20:25;;;;;;;0.38;0.38;;;;;;;13.82;64.20;100997.44;5138272;28;20027;-87
2023/01/01 09:22:55;;;;;;;0.30;0.30;;;;;;;13.78;64.38;100998.47;5129424;28;20031;-85
2023/01/01 09:25:26;;;;;;;0.38;0.38;;;;;;;13.79;64.27;101000.19;5126494;28;20545;-86
2023/01/01 09:27:58;;;;;;;0.28;0.28;;;;;;;13.82;64.15;101001.84;5134806;28;20030;-86
2023/01/01 09:30:29;;;;;;;0.30;0.30;;;;;;;13.85;64.28;101004.38;5118759;28;20197;-87
2023/01/01 09:33:00;;;;;;;0.20;0.20;;;;;;;13.80;64.23;101009.81;5128246;28;20106;-86
2023/01/01 09:35:31;;;;;;;0.20;0.20;;;;;;;13.78;64.25;101010.78;5135363;28;20015;-87
2023/01/01 09:38:02;;;;;;;0.30;0.30;;;;;;;13.81;64.32;101021.22;5117244;28;20049;-87
2023/01/01 09:40:47;;;;;;;1.17;1.08;;;;;;;13.82;64.45;101015.03;5116502;28;20027;-88
2023/01/01 09:43:37;;;;;;;0.73;0.43;;;;;;;13.90;64.17;101015.63;5141403;28;20133;-91
2023/01/01 09:46:10;;;;;;;0.35;0.35;;;;;;;13.91;64.41;101017.34;5119802;28;20127;-89
2023/01/01 09:48:52;;;;;;;0.30;0.30;;;;;;;13.93;64.43;101027.81;5123494;28;20047;-89
2023/01/01 09:51:25;;;;;;;0.50;0.50;;;;;;;13.95;64.22;101023.38;5139160;28;20116;-87
2023/01/01 09:54:10;;;;;;;0.40;0.40;;;;;;;13.94;64.19;101040.09;5129575;28;20031;-86
2023/01/01 09:56:44;;;;;;;13.68;1.70;;;;;;;13.89;64.31;101029.72;5128884;28;20634;-86
2023/01/01 09:59:15;;;;;;;0.75;0.75;;;;;;;13.97;64.22;101026.81;5120792;28;20030;-86
2023/01/01 10:02:19;;;;;;;1.05;0.80;;;;;;;13.95;64.00;101040.06;5140172;28;20035;-87
2023/01/01 10:05:27;;;;;;;0.20;0.20;;;;;;;13.96;64.21;101040.91;5127650;28;20034;-87
2023/01/01 10:08:27;;;;;;;0.65;0.65;;;;;;;13.92;64.13;101036.69;5127814;28;20047;-86
2023/01/01 10:11:08;;;;;;;0.50;0.50;;;;;;;14.03;63.77;101041.56;5126274;28;20060;-86
2023/01/01 10:13:44;;;;;;;0.40;0.40;;;;;;;14.04;64.09;101043.28;5139719;28;20509;-89
2023/01/01 10:16:31;;;;;;;0.43;0.43;;;;;;;13.98;63.77;101031.19;5133136;28;20043;-86
2023/01/01 10:19:19;;;;;;;0.68;0.55;;;;;;;13.96;63.87;101031.25;5118138;28;20677;-86
2023/01/01 10:21:53;;;;;;;2.95;1.40;;;;;;;14.03;64.04;101023.94;5136144;28;20409;-83
2023/01/01 10:24:47;;;;;;;0.30;0.30;;;;;;;14.04;63.86;101019.53;5141128;28;20716;-83
2023/01/01 10:27:27;;;;;;;0.50;0.50;;;;;;;14.09;63.93;101010.50;5133341;28;20671;-83
2023/01/01 10:30:00;;;;;;;0.30;0.30;;;;;;;14.03;63.72;101016.03;5140380;28;20038;-83
2023/01/01 10:32:35;;;;;;;1.60;0.77;;;;;;;14.02;63.63;101014.31;5115366;28;20046;-85
2023/01/01 10:35:16;;;;;;;0.30;0.30;;;;;;;14.05;63.64;101026.56;5118720;28;20952;-83
2023/01/01 10:37:51;;;;;;;0.30;0.30;;;;;;;14.04;63.65;101030.09;5138683;28;20054;-84
2023/01/01 10:40:25;;;;;;;0.40;0.40;;;;;;;14.01;63.85;101020.50;5123825;28;20031;-85
2023/01/01 10:43:01;;;;;;;0.20;0.20;;;;;;;14.01;63.96;101024.00;5115342;28;20453;-85
2023/01/01 10:45:44;;;;;;;0.32;0.32;;;;;;;14.11;63.67;101021.88;5131273;28;20192;-85
2023/01/01 10:48:23;;;;;;;0.43;0.43;;;;;;;14.07;63.73;101017.66;5129467;28;20106;-85
2023/01/01 10:50:58;;;;;;;8.57;0.63;;;;;;;14.07;63.70;101008.84;5132694;28;20047;-84
2023/01/01 10:53:59;;;;;;;0.35;0.35;;;;;;;14.13;63.62;101014.78;5135179;28;20117;-85
2023/01/01 10:56:42;;;;;;;0.30;0.30;;;;;;;14.09;63.59;101018.44;5124478;28;20511;-86
2023/01/01 10:59:36;;;;;;;0.50;0.50;;;;;;;14.13;63.39;101022.69;5127540;28;20034;-86
2023/01/01 11:02:16;;;;;;;0.45;0.45;;;;;;;14.17;63.53;101019.00;5141518;28;20038;-83
2023/01/01 11:04:48;;;;;;;0.50;0.50;;;;;;;14.06;63.67;101026.47;5133983;28;20596;-82
2023/01/01 11:07:27;;;;;;;0.85;0.50;;;;;;;14.06;63.70;101033.53;5133011;28;20077;-82
2023/01/01 11:10:01;;;;;;;0.55;0.55;;;;;;;14.08;63.44;101035.22;5150784;28;20050;-82
2023/01/01 11:12:39;;;;;;;0.50;0.50;;;;;;;14.04;63.23;101033.59;5133536;28;20767;-82
2023/01/01 11:15:21;;;;;;;1.10;1.05;;;;;;;14.05;63.63;101039.75;5138714;28;20026;-83
2023/01/01 11:18:11;;;;;;;0.82;0.82;;;;;;;14.05;63.64;101040.59;5142606;28;20115;-83
2023/01/01 11:20:42;;;;;;;0.73;0.50;;;;;;;14.00;63.87;101045.19;5127624;28;20190;-83
2023/01/01 11:23:29;;;;;;;0.73;0.68;;;;;;;14.07;63.50;101046.69;5123585;28;20027;-83
2023/01/01 11:26:26;;;;;;;0.22;0.22;;;;;;;14.13;63.62;101054.34;5121029;28;20042;-83
2023/01/01 11:29:04;;;;;;;0.30;0.30;;;;;;;14.04;63.19;101054.69;5140774;28;20667;-84
2023/01/01 11:31:38;;;;;;;0.88;0.88;;;;;;;14.06;63.19;101050.22;5142745;28;20043;-84
2023/01/01 11:34:25;;;;;;;1.55;0.70;;;;;;;14.07;62.90;101059.00;5136502;28;20103;-82
2023/01/01 11:37:06;;;;;;;0.52;0.52;;;;;;;14.11;62.69;101043.00;5135671;28;20054;-82
2023/01/01 11:39:42;;;;;;;0.73;0.73;;;;;;;14.07;63.18;101054.59;5132905;28;20912;-83
2023/01/01 11:42:25;;;;;;;0.30;0.30;;;;;;;14.08;62.35;101056.31;5119505;28;20093;-83
2023/01/01 11:44:57;;;;;;;2.50;1.50;;;;;;;14.11;62.88;101069.38;5124405;28;20370;-82
2023/01/01 11:47:30;;;;;;;0.30;0.30;;;;;;;14.05;62.83;101066.97;5136941;28;20658;-82
2023/01/01 11:50:12;;;;;;;4.78;1.00;;;;;;;14.04;62.27;101064.41;5135714;28;20039;-82
2023/01/01 11:52:49;;;;;;;0.43;0.43;;;;;;;14.01;62.26;101060.06;5140082;28;20101;-83
2023/01/01 11:55:36;;;;;;;0.98;0.98;;;;;;;14.03;62.13;101054.75;5121617;28;20033;-83
2023/01/01 11:58:22;;;;;;;1.33;1.27;;;;;;;14.03;62.28;101062.66;5083718;28;20057;-82
2023/01/01 12:01:01;;;;;;;0.20;0.20;;;;;;;14.03;62.20;101054.75;5135162;28;20039;-83
2023/01/01 12:03:38;;;;;;;0.65;0.57;;;;;;;14.11;62.51;101050.91;5130613;28;20043;-83
2023/01/01 12:06:29;;;;;;;0.65;0.65;;;;;;;14.09;62.29;101055.38;5125212;28;20058;-83
2023/01/01 12:09:37;;;;;;;0.50;0.50;;;;;;;14.08;62.14;101048.41;5118508;28;20043;-83